sensor_id;sensor_type;location;lat;lon;timestamp;pressure;altitude;pressure_sealevel;temperature;humidity
15193;BME280;7697;51.630;7.484;2023-12-04T00:01:22;-17133.31;;;1.68;100.00
15193;BME280;7697;51.630;7.484;2023-12-04T00:06:26;-17133.66;;;1.69;100.00
15193;BME280;7697;51.630;7.484;2023-12-04T00:11:32;-17134.66;;;1.72;100.00
15193;BME280;7697;51.630;7.484;2023-12-04T00:16:34;-17134.16;;;1.70;100.00
15193;BME280;7697;51.630;7.484;2023-12-04T00:21:36;-17134.34;;;1.71;100.00
15193;BME280;7697;51.630;7.484;2023-12-04T00:32:33;-17137.34;;;1.80;100.00
15193;BME280;7697;51.630;7.484;2023-12-04T00:37:34;-17138.84;;;1.84;100.00
15193;BME280;7697;51.630;7.484;2023-12-04T00:42:38;-17137.50;;;1.80;100.00
15193;BME280;7697;51.630;7.484;2023-12-04T00:47:41;-17139.34;;;1.86;100.00
15193;BME280;7697;51.630;7.484;2023-12-04T00:52:43;-17138.69;;;1.84;100.00
15193;BME280;7697;51.630;7.484;2023-12-04T00:57:44;-17141.19;;;1.92;99.85
15193;BME280;7697;51.630;7.484;2023-12-04T01:02:49;-17140.88;;;1.91;99.65
15193;BME280;7697;51.630;7.484;2023-12-04T01:07:55;-17141.19;;;1.92;99.16
15193;BME280;7697;51.630;7.484;2023-12-04T01:12:57;-17142.38;;;1.95;98.04
15193;BME280;7697;51.630;7.484;2023-12-04T01:18:00;-17141.38;;;1.92;97.99
15193;BME280;7697;51.630;7.484;2023-12-04T01:23:02;-17142.38;;;1.95;96.89
15193;BME280;7697;51.630;7.484;2023-12-04T01:28:04;-17143.38;;;1.98;96.84
15193;BME280;7697;51.630;7.484;2023-12-04T01:33:07;-17146.22;;;2.07;96.40
15193;BME280;7697;51.630;7.484;2023-12-04T01:38:09;-17146.22;;;2.07;96.69
15193;BME280;7697;51.630;7.484;2023-12-04T01:43:11;-17147.22;;;2.10;95.33
15193;BME280;7697;51.630;7.484;2023-12-04T01:48:14;-17147.41;;;2.10;94.36
15193;BME280;7697;51.630;7.484;2023-12-04T01:53:16;-17146.22;;;2.07;94.44
15193;BME280;7697;51.630;7.484;2023-12-04T01:58:19;-17146.41;;;2.07;94.48
15193;BME280;7697;51.630;7.484;2023-12-04T02:03:22;-17145.41;;;2.04;94.72
15193;BME280;7697;51.630;7.484;2023-12-04T02:08:25;-17146.06;;;2.06;94.30
15193;BME280;7697;51.630;7.484;2023-12-04T02:13:27;-17145.06;;;2.03;94.70
15193;BME280;7697;51.630;7.484;2023-12-04T02:18:30;-17144.22;;;2.01;96.00
15193;BME280;7697;51.630;7.484;2023-12-04T02:23:32;-17142.72;;;1.96;95.18
15193;BME280;7697;51.630;7.484;2023-12-04T02:28:36;-17143.38;;;1.98;95.16
15193;BME280;7697;51.630;7.484;2023-12-04T02:33:43;-17145.06;;;2.03;94.68
15193;BME280;7697;51.630;7.484;2023-12-04T02:38:46;-17146.06;;;2.06;93.98
15193;BME280;7697;51.630;7.484;2023-12-04T02:43:50;-17146.91;;;2.09;93.97
15193;BME280;7697;51.630;7.484;2023-12-04T02:48:52;-17146.41;;;2.07;94.35
15193;BME280;7697;51.630;7.484;2023-12-04T02:53:54;-17148.56;;;2.14;94.23
15193;BME280;7697;51.630;7.484;2023-12-04T02:58:57;-17148.41;;;2.13;94.24
15193;BME280;7697;51.630;7.484;2023-12-04T03:03:58;-17147.56;;;2.11;95.39
15193;BME280;7697;51.630;7.484;2023-12-04T03:09:00;-17148.41;;;2.13;95.14
15193;BME280;7697;51.630;7.484;2023-12-04T03:14:04;-17149.41;;;2.16;94.36
15193;BME280;7697;51.630;7.484;2023-12-04T03:19:05;-17148.25;;;2.13;94.28
15193;BME280;7697;51.630;7.484;2023-12-04T03:24:08;-17150.41;;;2.19;93.47
15193;BME280;7697;51.630;7.484;2023-12-04T03:29:12;-17150.75;;;2.20;93.98
15193;BME280;7697;51.630;7.484;2023-12-04T03:34:13;-17150.75;;;2.20;93.45
15193;BME280;7697;51.630;7.484;2023-12-04T03:39:15;-17151.44;;;2.22;92.16
15193;BME280;7697;51.630;7.484;2023-12-04T03:44:18;-17153.44;;;2.29;92.15
15193;BME280;7697;51.630;7.484;2023-12-04T03:49:21;-17155.59;;;2.35;91.13
15193;BME280;7697;51.630;7.484;2023-12-04T03:54:23;-17156.63;;;2.38;89.40
15193;BME280;7697;51.630;7.484;2023-12-04T03:59:26;-17155.44;;;2.35;89.36
15193;BME280;7697;51.630;7.484;2023-12-04T04:04:28;-17158.63;;;2.44;87.76
15193;BME280;7697;51.630;7.484;2023-12-04T04:09:30;-17161.13;;;2.52;86.63
15193;BME280;7697;51.630;7.484;2023-12-04T04:14:33;-17162.47;;;2.56;85.69
15193;BME280;7697;51.630;7.484;2023-12-04T04:19:35;-17161.66;;;2.53;86.65
15193;BME280;7697;51.630;7.484;2023-12-04T04:24:37;-17160.13;;;2.49;86.91
15193;BME280;7697;51.630;7.484;2023-12-04T04:29:41;-17161.81;;;2.54;87.28
15193;BME280;7697;51.630;7.484;2023-12-04T04:34:45;-17163.16;;;2.58;86.37
15193;BME280;7697;51.630;7.484;2023-12-04T04:39:47;-17164.00;;;2.60;84.66
15193;BME280;7697;51.630;7.484;2023-12-04T04:44:50;-17164.50;;;2.62;84.32
15193;BME280;7697;51.630;7.484;2023-12-04T04:49:51;-17166.34;;;2.68;83.44
15193;BME280;7697;51.630;7.484;2023-12-04T04:54:53;-17169.19;;;2.76;82.41
15193;BME280;7697;51.630;7.484;2023-12-04T04:59:56;-17167.84;;;2.72;83.29
15193;BME280;7697;51.630;7.484;2023-12-04T05:04:58;-17168.84;;;2.75;83.89
15193;BME280;7697;51.630;7.484;2023-12-04T05:15:15;-17170.34;;;2.80;82.44
15193;BME280;7697;51.630;7.484;2023-12-04T05:20:17;-17168.69;;;2.75;83.43
15193;BME280;7697;51.630;7.484;2023-12-04T05:25:19;-17167.84;;;2.72;83.55
15193;BME280;7697;51.630;7.484;2023-12-04T05:30:22;-17166.84;;;2.69;83.64
15193;BME280;7697;51.630;7.484;2023-12-04T05:35:24;-17165.00;;;2.63;83.30
15193;BME280;7697;51.630;7.484;2023-12-04T05:40:26;-17165.34;;;2.64;83.74
15193;BME280;7697;51.630;7.484;2023-12-04T05:45:29;-17165.16;;;2.64;83.61
15193;BME280;7697;51.630;7.484;2023-12-04T05:50:30;-17164.81;;;2.63;83.05
15193;BME280;7697;51.630;7.484;2023-12-04T05:55:32;-17166.50;;;2.68;83.17
15193;BME280;7697;51.630;7.484;2023-12-04T06:00:40;-17165.34;;;2.64;83.12
15193;BME280;7697;51.630;7.484;2023-12-04T06:05:53;-17165.00;;;2.63;84.88
15193;BME280;7697;51.630;7.484;2023-12-04T06:10:56;-17162.81;;;2.57;85.25
15193;BME280;7697;51.630;7.484;2023-12-04T06:15:59;-17164.00;;;2.60;85.29
15193;BME280;7697;51.630;7.484;2023-12-04T06:21:01;-17161.97;;;2.54;85.96
15193;BME280;7697;51.630;7.484;2023-12-04T06:26:03;-17163.81;;;2.60;83.03
15193;BME280;7697;51.630;7.484;2023-12-04T06:31:09;-17168.50;;;2.74;81.91
15193;BME280;7697;51.630;7.484;2023-12-04T06:36:12;-17170.19;;;2.79;81.17
15193;BME280;7697;51.630;7.484;2023-12-04T06:41:15;-17172.69;;;2.87;80.97
15193;BME280;7697;51.630;7.484;2023-12-04T06:46:21;-17172.88;;;2.87;80.57
15193;BME280;7697;51.630;7.484;2023-12-04T06:51:23;-17173.38;;;2.89;81.17
15193;BME280;7697;51.630;7.484;2023-12-04T06:56:25;-17172.38;;;2.86;81.45
15193;BME280;7697;51.630;7.484;2023-12-04T07:01:29;-17171.03;;;2.82;81.13
15193;BME280;7697;51.630;7.484;2023-12-04T07:06:31;-17171.88;;;2.84;80.93
15193;BME280;7697;51.630;7.484;2023-12-04T07:11:33;-17171.88;;;2.84;81.03
15193;BME280;7697;51.630;7.484;2023-12-04T07:16:40;-17171.03;;;2.82;80.47
15193;BME280;7697;51.630;7.484;2023-12-04T07:21:42;-17170.84;;;2.81;80.48
15193;BME280;7697;51.630;7.484;2023-12-04T07:26:44;-17172.53;;;2.86;78.65
15193;BME280;7697;51.630;7.484;2023-12-04T07:31:47;-17173.38;;;2.89;78.39
15193;BME280;7697;51.630;7.484;2023-12-04T07:36:49;-17173.22;;;2.88;78.36
15193;BME280;7697;51.630;7.484;2023-12-04T07:41:52;-17173.53;;;2.89;77.13
15193;BME280;7697;51.630;7.484;2023-12-04T07:46:55;-17174.72;;;2.93;77.84
15193;BME280;7697;51.630;7.484;2023-12-04T07:51:58;-17172.19;;;2.85;78.91
15193;BME280;7697;51.630;7.484;2023-12-04T07:56:59;-17171.03;;;2.82;79.57
15193;BME280;7697;51.630;7.484;2023-12-04T08:02:03;-17170.53;;;2.80;80.47
15193;BME280;7697;51.630;7.484;2023-12-04T08:07:05;-17169.69;;;2.78;79.64
15193;BME280;7697;51.630;7.484;2023-12-04T08:12:09;-17171.53;;;2.83;78.82
15193;BME280;7697;51.630;7.484;2023-12-04T08:17:12;-17174.38;;;2.92;77.10
15193;BME280;7697;51.630;7.484;2023-12-04T08:22:15;-17177.41;;;3.01;76.19
15193;BME280;7697;51.630;7.484;2023-12-04T08:27:17;-17177.41;;;3.01;75.29
15193;BME280;7697;51.630;7.484;2023-12-04T08:32:20;-17181.25;;;3.13;75.24
15193;BME280;7697;51.630;7.484;2023-12-04T08:37:22;-17181.91;;;3.15;74.06
15193;BME280;7697;51.630;7.484;2023-12-04T08:42:24;-17183.09;;;3.18;74.24
15193;BME280;7697;51.630;7.484;2023-12-04T08:47:28;-17183.75;;;3.20;73.52
15193;BME280;7697;51.630;7.484;2023-12-04T08:52:29;-17186.13;;;3.27;74.30
15193;BME280;7697;51.630;7.484;2023-12-04T08:57:31;-17186.94;;;3.30;73.57
15193;BME280;7697;51.630;7.484;2023-12-04T09:02:34;-17188.78;;;3.35;73.46
15193;BME280;7697;51.630;7.484;2023-12-04T09:07:36;-17190.13;;;3.39;73.71
15193;BME280;7697;51.630;7.484;2023-12-04T09:12:40;-17191.97;;;3.45;72.91
15193;BME280;7697;51.630;7.484;2023-12-04T09:17:47;-17192.81;;;3.48;71.67
15193;BME280;7697;51.630;7.484;2023-12-04T09:22:49;-17194.50;;;3.53;72.67
15193;BME280;7697;51.630;7.484;2023-12-04T09:27:51;-17194.66;;;3.53;72.86
15193;BME280;7697;51.630;7.484;2023-12-04T09:32:56;-17194.66;;;3.53;73.00
15193;BME280;7697;51.630;7.484;2023-12-04T09:37:58;-17192.47;;;3.47;73.76
15193;BME280;7697;51.630;7.484;2023-12-04T09:43:00;-17195.00;;;3.54;72.97
15193;BME280;7697;51.630;7.484;2023-12-04T09:48:05;-17195.50;;;3.56;72.86
15193;BME280;7697;51.630;7.484;2023-12-04T09:53:10;-17196.00;;;3.57;72.43
15193;BME280;7697;51.630;7.484;2023-12-04T09:58:14;-17197.34;;;3.61;72.62
15193;BME280;7697;51.630;7.484;2023-12-04T10:03:21;-17197.84;;;3.63;72.67
15193;BME280;7697;51.630;7.484;2023-12-04T10:08:23;-17198.34;;;3.64;72.94
15193;BME280;7697;51.630;7.484;2023-12-04T10:13:26;-17199.84;;;3.69;72.88
15193;BME280;7697;51.630;7.484;2023-12-04T10:18:30;-17200.84;;;3.72;73.03
15193;BME280;7697;51.630;7.484;2023-12-04T10:23:57;-17199.19;;;3.67;73.19
15193;BME280;7697;51.630;7.484;2023-12-04T10:29:13;-17200.53;;;3.71;72.27
15193;BME280;7697;51.630;7.484;2023-12-04T10:34:32;-17199.34;;;3.67;72.55
15193;BME280;7697;51.630;7.484;2023-12-04T10:39:47;-17200.19;;;3.70;72.52
15193;BME280;7697;51.630;7.484;2023-12-04T10:44:49;-17200.19;;;3.70;72.88
15193;BME280;7697;51.630;7.484;2023-12-04T10:49:52;-17199.84;;;3.69;73.66
15193;BME280;7697;51.630;7.484;2023-12-04T10:54:55;-17201.38;;;3.73;73.56
15193;BME280;7697;51.630;7.484;2023-12-04T11:00:03;-17202.03;;;3.75;73.40
15193;BME280;7697;51.630;7.484;2023-12-04T11:05:08;-17203.88;;;3.81;73.85
15193;BME280;7697;51.630;7.484;2023-12-04T11:10:18;-17203.03;;;3.78;74.25
15193;BME280;7697;51.630;7.484;2023-12-04T11:15:23;-17204.03;;;3.82;74.43
15193;BME280;7697;51.630;7.484;2023-12-04T11:20:31;-17205.06;;;3.85;74.48
15193;BME280;7697;51.630;7.484;2023-12-04T11:25:38;-17205.38;;;3.86;75.19
15193;BME280;7697;51.630;7.484;2023-12-04T11:30:43;-17206.38;;;3.89;75.00
15193;BME280;7697;51.630;7.484;2023-12-04T11:35:47;-17204.38;;;3.83;75.62
15193;BME280;7697;51.630;7.484;2023-12-04T11:40:52;-17206.72;;;3.90;75.48
15193;BME280;7697;51.630;7.484;2023-12-04T11:46:07;-17207.22;;;3.91;75.69
15193;BME280;7697;51.630;7.484;2023-12-04T11:51:15;-17208.06;;;3.94;75.55
15193;BME280;7697;51.630;7.484;2023-12-04T11:56:36;-17210.75;;;4.02;75.44
15193;BME280;7697;51.630;7.484;2023-12-04T12:01:38;-17212.25;;;4.06;75.43
15193;BME280;7697;51.630;7.484;2023-12-04T12:06:42;-17213.94;;;4.11;75.46
15193;BME280;7697;51.630;7.484;2023-12-04T12:11:46;-17215.28;;;4.15;75.97
15193;BME280;7697;51.630;7.484;2023-12-04T12:16:48;-17217.94;;;4.24;75.36
15193;BME280;7697;51.630;7.484;2023-12-04T12:21:52;-17218.47;;;4.25;75.20
15193;BME280;7697;51.630;7.484;2023-12-04T12:26:54;-17219.81;;;4.29;75.11
15193;BME280;7697;51.630;7.484;2023-12-04T12:31:56;-17219.13;;;4.27;75.85
15193;BME280;7697;51.630;7.484;2023-12-04T12:36:59;-17219.47;;;4.28;76.49
15193;BME280;7697;51.630;7.484;2023-12-04T12:42:01;-17220.81;;;4.32;77.74
15193;BME280;7697;51.630;7.484;2023-12-04T12:47:05;-17221.81;;;4.35;78.54
15193;BME280;7697;51.630;7.484;2023-12-04T12:52:09;-17221.13;;;4.33;78.79
15193;BME280;7697;51.630;7.484;2023-12-04T12:57:12;-17221.97;;;4.36;79.36
15193;BME280;7697;51.630;7.484;2023-12-04T13:02:14;-17224.66;;;4.44;79.42
15193;BME280;7697;51.630;7.484;2023-12-04T13:07:18;-17222.97;;;4.39;79.99
15193;BME280;7697;51.630;7.484;2023-12-04T13:12:21;-17222.47;;;4.37;80.89
15193;BME280;7697;51.630;7.484;2023-12-04T13:17:23;-17218.78;;;4.26;82.00
15193;BME280;7697;51.630;7.484;2023-12-04T13:22:27;-17218.13;;;4.24;83.02
15193;BME280;7697;51.630;7.484;2023-12-04T13:27:29;-17218.78;;;4.26;82.82
15193;BME280;7697;51.630;7.484;2023-12-04T13:32:31;-17216.78;;;4.20;83.90
15193;BME280;7697;51.630;7.484;2023-12-04T13:37:36;-17216.94;;;4.21;83.73
15193;BME280;7697;51.630;7.484;2023-12-04T13:42:39;-17216.63;;;4.20;83.88
15193;BME280;7697;51.630;7.484;2023-12-04T13:47:58;-17216.44;;;4.19;84.65
15193;BME280;7697;51.630;7.484;2023-12-04T13:53:01;-17216.78;;;4.20;85.22
15193;BME280;7697;51.630;7.484;2023-12-04T13:58:04;-17216.28;;;4.19;85.56
15193;BME280;7697;51.630;7.484;2023-12-04T14:03:24;-17216.63;;;4.20;86.27
15193;BME280;7697;51.630;7.484;2023-12-04T14:08:42;-17216.13;;;4.18;87.01
15193;BME280;7697;51.630;7.484;2023-12-04T14:13:50;-17215.09;;;4.15;88.19
15193;BME280;7697;51.630;7.484;2023-12-04T14:18:52;-17213.25;;;4.09;89.40
15193;BME280;7697;51.630;7.484;2023-12-04T14:23:57;-17210.91;;;4.02;90.27
15193;BME280;7697;51.630;7.484;2023-12-04T14:28:59;-17211.06;;;4.03;90.72
15193;BME280;7697;51.630;7.484;2023-12-04T14:34:03;-17209.75;;;3.99;91.38
15193;BME280;7697;51.630;7.484;2023-12-04T14:39:07;-17207.91;;;3.93;92.59
15193;BME280;7697;51.630;7.484;2023-12-04T14:44:11;-17207.06;;;3.91;92.34
15193;BME280;7697;51.630;7.484;2023-12-04T14:49:12;-17204.88;;;3.84;93.68
15193;BME280;7697;51.630;7.484;2023-12-04T14:54:16;-17203.88;;;3.81;94.62
15193;BME280;7697;51.630;7.484;2023-12-04T14:59:21;-17202.38;;;3.76;95.09
15193;BME280;7697;51.630;7.484;2023-12-04T15:04:40;-17199.03;;;3.66;95.33
15193;BME280;7697;51.630;7.484;2023-12-04T15:10:01;-17199.69;;;3.68;95.73
15193;BME280;7697;51.630;7.484;2023-12-04T15:15:20;-17198.50;;;3.65;96.21
15193;BME280;7697;51.630;7.484;2023-12-04T15:20:39;-17197.84;;;3.63;96.77
15193;BME280;7697;51.630;7.484;2023-12-04T15:25:42;-17196.16;;;3.58;96.78
15193;BME280;7697;51.630;7.484;2023-12-04T15:30:44;-17196.66;;;3.59;96.99
15193;BME280;7697;51.630;7.484;2023-12-04T15:35:46;-17196.16;;;3.58;96.91
15193;BME280;7697;51.630;7.484;2023-12-04T15:40:50;-17196.00;;;3.57;97.10
15193;BME280;7697;51.630;7.484;2023-12-04T15:45:52;-17196.16;;;3.58;97.37
15193;BME280;7697;51.630;7.484;2023-12-04T15:50:54;-17195.84;;;3.57;97.47
15193;BME280;7697;51.630;7.484;2023-12-04T15:55:57;-17194.81;;;3.54;96.84
15193;BME280;7697;51.630;7.484;2023-12-04T16:01:00;-17197.50;;;3.62;96.68
15193;BME280;7697;51.630;7.484;2023-12-04T16:06:03;-17196.50;;;3.59;97.11
15193;BME280;7697;51.630;7.484;2023-12-04T16:11:07;-17196.50;;;3.59;96.57
15193;BME280;7697;51.630;7.484;2023-12-04T16:16:09;-17197.84;;;3.63;96.47
15193;BME280;7697;51.630;7.484;2023-12-04T16:21:11;-17197.34;;;3.61;96.85
15193;BME280;7697;51.630;7.484;2023-12-04T16:26:15;-17199.69;;;3.68;96.60
15193;BME280;7697;51.630;7.484;2023-12-04T16:31:18;-17198.34;;;3.64;96.81
15193;BME280;7697;51.630;7.484;2023-12-04T16:36:20;-17199.34;;;3.67;96.50
15193;BME280;7697;51.630;7.484;2023-12-04T16:41:23;-17200.19;;;3.70;96.95
15193;BME280;7697;51.630;7.484;2023-12-04T16:46:25;-17200.19;;;3.70;96.98
15193;BME280;7697;51.630;7.484;2023-12-04T16:51:28;-17201.88;;;3.75;97.07
15193;BME280;7697;51.630;7.484;2023-12-04T16:56:31;-17201.69;;;3.74;97.17
15193;BME280;7697;51.630;7.484;2023-12-04T17:01:33;-17203.19;;;3.79;97.49
15193;BME280;7697;51.630;7.484;2023-12-04T17:06:35;-17202.69;;;3.77;97.70
15193;BME280;7697;51.630;7.484;2023-12-04T17:11:38;-17202.69;;;3.77;97.60
15193;BME280;7697;51.630;7.484;2023-12-04T17:16:40;-17204.38;;;3.83;97.75
15193;BME280;7697;51.630;7.484;2023-12-04T17:21:42;-17203.03;;;3.78;98.10
15193;BME280;7697;51.630;7.484;2023-12-04T17:26:45;-17205.22;;;3.85;98.16
15193;BME280;7697;51.630;7.484;2023-12-04T17:31:47;-17205.38;;;3.86;97.86
15193;BME280;7697;51.630;7.484;2023-12-04T17:36:48;-17206.72;;;3.90;98.05
15193;BME280;7697;51.630;7.484;2023-12-04T17:41:52;-17205.72;;;3.87;98.10
15193;BME280;7697;51.630;7.484;2023-12-04T17:46:53;-17206.22;;;3.88;98.41
15193;BME280;7697;51.630;7.484;2023-12-04T17:51:55;-17207.41;;;3.92;98.13
15193;BME280;7697;51.630;7.484;2023-12-04T17:56:58;-17207.72;;;3.93;98.58
15193;BME280;7697;51.630;7.484;2023-12-04T18:02:00;-17206.22;;;3.88;98.95
15193;BME280;7697;51.630;7.484;2023-12-04T18:07:04;-17208.91;;;3.96;98.93
15193;BME280;7697;51.630;7.484;2023-12-04T18:12:07;-17207.72;;;3.93;98.96
15193;BME280;7697;51.630;7.484;2023-12-04T18:17:09;-17207.56;;;3.92;99.39
15193;BME280;7697;51.630;7.484;2023-12-04T18:22:11;-17206.72;;;3.90;99.83
15193;BME280;7697;51.630;7.484;2023-12-04T18:27:21;-17208.06;;;3.94;100.00
15193;BME280;7697;51.630;7.484;2023-12-04T18:32:25;-17206.56;;;3.89;99.95
15193;BME280;7697;51.630;7.484;2023-12-04T18:37:31;-17209.06;;;3.97;99.42
15193;BME280;7697;51.630;7.484;2023-12-04T18:42:36;-17209.91;;;3.99;100.00
15193;BME280;7697;51.630;7.484;2023-12-04T18:47:39;-17208.91;;;3.96;100.00
15193;BME280;7697;51.630;7.484;2023-12-04T18:53:05;-17209.06;;;3.97;100.00
15193;BME280;7697;51.630;7.484;2023-12-04T18:58:15;-17208.91;;;3.96;100.00
15193;BME280;7697;51.630;7.484;2023-12-04T19:03:20;-17209.41;;;3.98;100.00
15193;BME280;7697;51.630;7.484;2023-12-04T19:08:23;-17210.75;;;4.02;100.00
15193;BME280;7697;51.630;7.484;2023-12-04T19:13:27;-17210.06;;;4.00;100.00
15193;BME280;7697;51.630;7.484;2023-12-04T19:18:29;-17209.91;;;3.99;100.00
15193;BME280;7697;51.630;7.484;2023-12-04T19:23:31;-17211.41;;;4.04;100.00
15193;BME280;7697;51.630;7.484;2023-12-04T19:28:34;-17211.41;;;4.04;100.00
15193;BME280;7697;51.630;7.484;2023-12-04T19:33:36;-17212.09;;;4.06;100.00
15193;BME280;7697;51.630;7.484;2023-12-04T19:38:38;-17211.06;;;4.03;100.00
15193;BME280;7697;51.630;7.484;2023-12-04T19:43:42;-17210.06;;;4.00;100.00
15193;BME280;7697;51.630;7.484;2023-12-04T19:48:43;-17206.91;;;3.90;100.00
15193;BME280;7697;51.630;7.484;2023-12-04T19:53:45;-17206.38;;;3.89;100.00
15193;BME280;7697;51.630;7.484;2023-12-04T19:58:53;-17206.06;;;3.88;100.00
15193;BME280;7697;51.630;7.484;2023-12-04T20:03:55;-17205.72;;;3.87;100.00
15193;BME280;7697;51.630;7.484;2023-12-04T20:08:58;-17203.19;;;3.79;100.00
15193;BME280;7697;51.630;7.484;2023-12-04T20:14:01;-17203.88;;;3.81;100.00
15193;BME280;7697;51.630;7.484;2023-12-04T20:19:04;-17203.72;;;3.81;100.00
15193;BME280;7697;51.630;7.484;2023-12-04T20:24:06;-17202.53;;;3.77;100.00
15193;BME280;7697;51.630;7.484;2023-12-04T20:29:10;-17204.22;;;3.82;100.00
15193;BME280;7697;51.630;7.484;2023-12-04T20:34:12;-17205.38;;;3.86;100.00
15193;BME280;7697;51.630;7.484;2023-12-04T20:39:13;-17203.72;;;3.81;100.00
15193;BME280;7697;51.630;7.484;2023-12-04T20:44:16;-17205.72;;;3.87;100.00
15193;BME280;7697;51.630;7.484;2023-12-04T20:49:18;-17204.38;;;3.83;100.00
15193;BME280;7697;51.630;7.484;2023-12-04T20:54:20;-17203.38;;;3.80;100.00
15193;BME280;7697;51.630;7.484;2023-12-04T20:59:24;-17203.88;;;3.81;100.00
15193;BME280;7697;51.630;7.484;2023-12-04T21:04:25;-17202.53;;;3.77;100.00
15193;BME280;7697;51.630;7.484;2023-12-04T21:09:27;-17204.03;;;3.82;100.00
15193;BME280;7697;51.630;7.484;2023-12-04T21:14:34;-17202.69;;;3.77;100.00
15193;BME280;7697;51.630;7.484;2023-12-04T21:19:36;-17202.53;;;3.77;100.00
15193;BME280;7697;51.630;7.484;2023-12-04T21:24:38;-17204.38;;;3.83;100.00
15193;BME280;7697;51.630;7.484;2023-12-04T21:29:44;-17202.38;;;3.76;100.00
15193;BME280;7697;51.630;7.484;2023-12-04T21:34:46;-17203.03;;;3.78;100.00
15193;BME280;7697;51.630;7.484;2023-12-04T21:39:48;-17202.38;;;3.76;100.00
15193;BME280;7697;51.630;7.484;2023-12-04T21:44:53;-17203.38;;;3.80;100.00
15193;BME280;7697;51.630;7.484;2023-12-04T21:49:55;-17205.06;;;3.85;100.00
15193;BME280;7697;51.630;7.484;2023-12-04T21:54:57;-17205.06;;;3.85;100.00
15193;BME280;7697;51.630;7.484;2023-12-04T22:00:00;-17206.56;;;3.89;100.00
15193;BME280;7697;51.630;7.484;2023-12-04T22:05:02;-17206.38;;;3.89;100.00
15193;BME280;7697;51.630;7.484;2023-12-04T22:10:06;-17207.91;;;3.93;100.00
15193;BME280;7697;51.630;7.484;2023-12-04T22:15:10;-17208.41;;;3.95;100.00
15193;BME280;7697;51.630;7.484;2023-12-04T22:20:12;-17208.56;;;3.95;100.00
15193;BME280;7697;51.630;7.484;2023-12-04T22:25:13;-17208.72;;;3.96;100.00
15193;BME280;7697;51.630;7.484;2023-12-04T22:30:17;-17208.72;;;3.96;100.00
15193;BME280;7697;51.630;7.484;2023-12-04T22:35:19;-17207.91;;;3.93;100.00
15193;BME280;7697;51.630;7.484;2023-12-04T22:40:20;-17208.72;;;3.96;100.00
15193;BME280;7697;51.630;7.484;2023-12-04T22:45:24;-17208.06;;;3.94;100.00
15193;BME280;7697;51.630;7.484;2023-12-04T22:50:26;-17209.06;;;3.97;100.00
15193;BME280;7697;51.630;7.484;2023-12-04T22:55:28;-17209.91;;;3.99;100.00
15193;BME280;7697;51.630;7.484;2023-12-04T23:00:31;-17207.56;;;3.92;100.00
15193;BME280;7697;51.630;7.484;2023-12-04T23:05:33;-17208.22;;;3.94;100.00
15193;BME280;7697;51.630;7.484;2023-12-04T23:10:34;-17209.75;;;3.99;100.00
15193;BME280;7697;51.630;7.484;2023-12-04T23:15:38;-17210.06;;;4.00;100.00
15193;BME280;7697;51.630;7.484;2023-12-04T23:20:40;-17208.72;;;3.96;100.00
15193;BME280;7697;51.630;7.484;2023-12-04T23:25:41;-17209.06;;;3.97;100.00
15193;BME280;7697;51.630;7.484;2023-12-04T23:30:45;-17208.41;;;3.95;100.00
15193;BME280;7697;51.630;7.484;2023-12-04T23:35:46;-17207.91;;;3.93;100.00
15193;BME280;7697;51.630;7.484;2023-12-04T23:40:48;-17208.91;;;3.96;100.00
15193;BME280;7697;51.630;7.484;2023-12-04T23:45:54;-17210.06;;;4.00;100.00
15193;BME280;7697;51.630;7.484;2023-12-04T23:50:58;-17209.41;;;3.98;100.00
15193;BME280;7697;51.630;7.484;2023-12-04T23:56:00;-17210.41;;;4.01;100.00
